Time;durP1;ratioP1;P1;durP2;ratioP2;P2;SDS_P1;SDS_P2;PMS_P1;PMS_P2;Temp;Humidity;BMP_temperature;BMP_pressure;BME280_temperature;BME280_humidity;BME280_pressure;Samples;Min_cycle;Max_cycle;Signal;HPM_P1;HPM_P2
2022/04/05 00:01:34;;;;;;;6.00;1.80;;;;;;;4.43;52.41;97477.05;105724;1279;22547;-75
2022/04/05 00:04:01;;;;;;;5.40;2.00;;;;;;;4.46;52.50;97483.94;105778;1278;24356;-76
2022/04/05 00:06:27;;;;;;;5.30;2.10;;;;;;;4.47;52.23;97479.41;105746;1278;22743;-75
2022/04/05 00:08:54;;;;;;;4.90;2.10;;;;;;;4.48;52.59;97476.41;105754;1278;22573;-76
2022/04/05 00:11:22;;;;;;;5.60;2.10;;;;;;;4.49;52.65;97480.19;105732;1278;24982;-76
2022/04/05 00:13:49;;;;;;;5.90;2.20;;;;;;;4.51;52.94;97487.26;105857;1278;25339;-76
2022/04/05 00:16:16;;;;;;;6.60;2.90;;;;;;;4.52;52.78;97483.12;105741;1278;25275;-76
2022/04/05 00:18:43;;;;;;;5.60;2.30;;;;;;;4.54;52.72;97488.41;105776;1278;22543;-76
2022/04/05 00:21:10;;;;;;;5.60;2.10;;;;;;;4.54;52.79;97484.55;105796;1279;23517;-77
2022/04/05 00:23:37;;;;;;;5.60;2.50;;;;;;;4.54;52.88;97486.68;105779;1280;25362;-77
2022/04/05 00:26:03;;;;;;;5.00;2.10;;;;;;;4.52;53.16;97478.40;105757;1278;25381;-77
2022/04/05 00:28:30;;;;;;;4.60;1.90;;;;;;;4.48;53.38;97486.05;105715;1279;22532;-77
2022/04/05 00:30:57;;;;;;;5.60;2.50;;;;;;;4.44;53.22;97479.66;105744;1281;25532;-76
2022/04/05 00:33:24;;;;;;;5.00;2.20;;;;;;;4.41;53.23;97479.20;105661;1281;22652;-76
2022/04/05 00:35:51;;;;;;;5.10;2.00;;;;;;;4.38;53.49;97483.48;105747;1276;23009;-76
2022/04/05 00:38:18;;;;;;;5.60;2.40;;;;;;;4.36;53.39;97478.13;105694;1279;22539;-76
2022/04/05 00:40:45;;;;;;;5.40;2.40;;;;;;;4.32;53.59;97472.95;105717;1279;22541;-77
2022/04/05 00:43:11;;;;;;;5.80;2.40;;;;;;;4.30;53.66;97480.27;105719;1279;23778;-77
2022/04/05 00:45:38;;;;;;;5.70;2.50;;;;;;;4.27;53.62;97475.96;105578;1279;200629;-78
2022/04/05 00:48:06;;;;;;;5.30;2.40;;;;;;;4.24;53.85;97477.07;105780;1278;25260;-77
2022/04/05 00:50:37;;;;;;;4.30;2.00;;;;;;;4.23;53.87;97473.29;105797;1278;22556;-77
2022/04/05 00:53:07;;;;;;;5.60;2.30;;;;;;;4.21;54.06;97475.17;105761;1279;22531;-76
2022/04/05 00:55:35;;;;;;;4.60;2.10;;;;;;;4.19;53.96;97473.33;105747;1279;22613;-76
2022/04/05 00:58:03;;;;;;;5.00;2.00;;;;;;;4.19;54.15;97465.95;105868;1278;22727;-76
2022/04/05 01:00:31;;;;;;;5.40;2.20;;;;;;;4.19;54.26;97471.58;105745;1279;22566;-76
2022/04/05 01:02:59;;;;;;;5.30;2.00;;;;;;;4.21;54.28;97467.63;105785;1279;24242;-76
2022/04/05 01:05:27;;;;;;;5.60;2.10;;;;;;;4.20;54.37;97468.68;105754;1279;24332;-76
2022/04/05 01:07:59;;;;;;;5.30;2.50;;;;;;;4.21;54.28;97462.88;105813;1278;22561;-76
2022/04/05 01:10:28;;;;;;;5.40;2.00;;;;;;;4.19;54.43;97462.57;105788;1279;22537;-76
2022/04/05 01:12:56;;;;;;;5.10;2.10;;;;;;;4.17;54.54;97462.92;105827;1278;22547;-77
2022/04/05 01:15:23;;;;;;;5.30;2.10;;;;;;;4.19;54.72;97465.29;105739;1279;25532;-76
2022/04/05 01:17:51;;;;;;;4.50;2.00;;;;;;;4.22;54.86;97457.66;105731;1279;23725;-77
2022/04/05 01:20:18;;;;;;;5.00;2.10;;;;;;;4.23;54.72;97468.99;105801;1279;22683;-76
2022/04/05 01:22:46;;;;;;;5.50;2.00;;;;;;;4.23;54.91;97465.66;105729;1279;22549;-78
2022/04/05 01:25:18;;;;;;;5.30;2.10;;;;;;;4.25;55.11;97460.98;105765;1279;24398;-77
2022/04/05 01:27:51;;;;;;;4.70;1.90;;;;;;;4.27;54.95;97455.34;105809;1279;24063;-77
2022/04/05 01:30:18;;;;;;;4.60;2.10;;;;;;;4.30;55.17;97460.03;105850;1278;22601;-75
2022/04/05 01:32:45;;;;;;;4.80;1.70;;;;;;;4.30;55.16;97451.57;105779;1278;24251;-75
2022/04/05 01:35:12;;;;;;;4.50;2.10;;;;;;;4.29;55.02;97465.58;105712;1279;22541;-76
2022/04/05 01:37:38;;;;;;;3.90;1.70;;;;;;;4.28;55.14;97460.05;105707;1278;22566;-77
2022/04/05 01:40:05;;;;;;;4.30;1.80;;;;;;;4.26;55.02;97456.98;105766;1278;25341;-76
2022/04/05 01:42:33;;;;;;;4.60;1.70;;;;;;;4.26;55.29;97453.50;105678;1279;22553;-76
2022/04/05 01:45:01;;;;;;;4.30;2.00;;;;;;;4.24;55.19;97449.42;105739;1279;22859;-76
2022/04/05 01:47:28;;;;;;;4.50;1.90;;;;;;;4.22;55.38;97459.22;105764;1279;25461;-76
2022/04/05 01:49:55;;;;;;;4.60;1.80;;;;;;;4.20;55.54;97448.80;105777;1278;22621;-76
2022/04/05 01:52:22;;;;;;;5.60;1.90;;;;;;;4.21;55.38;97449.66;105733;1279;25332;-76
2022/04/05 01:54:48;;;;;;;5.60;2.20;;;;;;;4.21;55.44;97448.21;105731;1279;22708;-76
2022/04/05 01:57:16;;;;;;;4.90;1.80;;;;;;;4.20;55.72;97440.37;105707;1278;25411;-76
2022/04/05 01:59:43;;;;;;;5.60;2.40;;;;;;;4.19;55.97;97445.87;105728;1279;22666;-77
2022/04/05 02:02:11;;;;;;;5.30;2.20;;;;;;;4.18;55.87;97439.60;105717;1279;24317;-77
2022/04/05 02:04:40;;;;;;;6.40;1.90;;;;;;;4.19;55.98;97435.50;105685;1279;25275;-77
2022/04/05 02:07:10;;;;;;;4.20;1.70;;;;;;;4.19;55.57;97438.98;105780;1279;25240;-77
2022/04/05 02:09:37;;;;;;;4.90;1.90;;;;;;;4.18;55.99;97435.23;105807;1279;25552;-76
2022/04/05 02:12:05;;;;;;;4.60;2.00;;;;;;;4.15;55.86;97430.84;105713;1278;22556;-77
2022/04/05 02:14:53;;;;;;;4.70;2.10;;;;;;;4.13;55.99;97432.58;105707;1279;24287;-76
2022/04/05 02:17:25;;;;;;;5.50;2.00;;;;;;;4.13;56.26;97429.73;105697;1279;22573;-76
2022/04/05 02:19:54;;;;;;;4.10;1.70;;;;;;;4.15;56.22;97424.20;105734;1279;25273;-76
2022/04/05 02:22:21;;;;;;;5.00;2.10;;;;;;;4.14;56.10;97418.25;105662;1279;25270;-76
2022/04/05 02:24:51;;;;;;;4.30;1.90;;;;;;;4.14;56.20;97415.24;105747;1279;25340;-76
2022/04/05 02:27:18;;;;;;;4.20;2.00;;;;;;;4.16;56.33;97421.80;105745;1278;25260;-75
2022/04/05 02:29:45;;;;;;;4.80;1.80;;;;;;;4.19;56.21;97414.02;105685;1278;25352;-76
2022/04/05 02:32:18;;;;;;;4.40;2.10;;;;;;;4.21;56.49;97413.38;105721;1278;22582;-76
2022/04/05 02:34:45;;;;;;;5.60;2.20;;;;;;;4.23;56.42;97418.84;105726;1278;24311;-76
2022/04/05 02:37:11;;;;;;;9.70;3.30;;;;;;;4.24;56.60;97410.81;105673;1279;22570;-75
2022/04/05 02:39:38;;;;;;;7.20;2.20;;;;;;;4.25;56.57;97412.65;105684;1278;22569;-76
2022/04/05 02:42:06;;;;;;;6.40;2.60;;;;;;;4.26;56.55;97419.31;105681;1281;22615;-76
2022/04/05 02:44:38;;;;;;;5.40;2.40;;;;;;;4.26;56.56;97413.48;105742;1279;23513;-76
2022/04/05 02:47:07;;;;;;;5.00;1.90;;;;;;;4.27;56.65;97416.56;105769;1279;22562;-75
2022/04/05 02:49:37;;;;;;;5.50;1.80;;;;;;;4.31;56.72;97424.23;105690;1278;25380;-76
2022/04/05 02:52:05;;;;;;;5.40;1.90;;;;;;;4.34;56.77;97427.54;105780;1278;22557;-75
2022/04/05 02:54:39;;;;;;;4.50;2.00;;;;;;;4.36;56.86;97424.94;105580;1278;23929;-78
2022/04/05 02:57:06;;;;;;;3.60;1.70;;;;;;;4.38;56.87;97426.89;105654;1279;25244;-75
2022/04/05 02:59:34;;;;;;;3.80;1.70;;;;;;;4.39;56.75;97429.65;105779;1279;22653;-78
2022/04/05 03:02:01;;;;;;;4.20;1.70;;;;;;;4.40;56.82;97427.30;105700;1279;25269;-77
2022/04/05 03:04:28;;;;;;;4.60;1.80;;;;;;;4.42;56.83;97432.64;105729;1278;22566;-77
2022/04/05 03:06:55;;;;;;;4.50;1.80;;;;;;;4.42;56.92;97432.45;105672;1278;25323;-77
2022/04/05 03:09:23;;;;;;;3.80;1.50;;;;;;;4.42;56.69;97436.48;105714;1279;25625;-78
2022/04/05 03:11:51;;;;;;;5.40;1.60;;;;;;;4.42;57.00;97435.06;105738;1279;22534;-78
2022/04/05 03:14:17;;;;;;;5.10;1.80;;;;;;;4.45;56.92;97439.44;105710;1278;25603;-78
2022/04/05 03:16:46;;;;;;;4.30;1.60;;;;;;;4.47;57.26;97428.56;105731;1278;25251;-78
2022/04/05 03:19:16;;;;;;;5.40;2.30;;;;;;;4.48;57.03;97431.27;105706;1278;26540;-78
2022/04/05 03:21:44;;;;;;;4.70;1.70;;;;;;;4.47;57.19;97428.88;105744;1279;24755;-77
2022/04/05 03:24:11;;;;;;;3.80;1.50;;;;;;;4.45;57.25;97430.98;105823;1278;23500;-78
2022/04/05 03:26:37;;;;;;;5.30;2.30;;;;;;;4.44;57.14;97429.77;105667;1281;25406;-77
2022/04/05 03:29:04;;;;;;;6.00;2.50;;;;;;;4.44;57.20;97429.80;105778;1278;23303;-77
2022/04/05 03:31:31;;;;;;;7.00;3.00;;;;;;;4.41;57.17;97430.02;105791;1278;25229;-77
2022/04/05 03:33:59;;;;;;;7.30;3.40;;;;;;;4.40;57.37;97430.98;105678;1280;25339;-78
2022/04/05 03:36:25;;;;;;;7.00;3.30;;;;;;;4.39;57.46;97429.48;105674;1279;22566;-75
2022/04/05 03:38:52;;;;;;;5.80;2.50;;;;;;;4.39;57.37;97428.74;105632;1278;25270;-75
2022/04/05 03:41:19;;;;;;;5.80;2.40;;;;;;;4.41;57.43;97425.45;105727;1278;24339;-76
2022/04/05 03:43:46;;;;;;;6.70;3.00;;;;;;;4.42;57.63;97425.50;105659;1279;22566;-76
2022/04/05 03:46:17;;;;;;;5.80;2.40;;;;;;;4.42;57.67;97422.86;105715;1279;22718;-80
2022/04/05 03:48:44;;;;;;;5.30;2.20;;;;;;;4.42;57.68;97422.69;105712;1279;22610;-80
2022/04/05 03:51:11;;;;;;;5.00;2.10;;;;;;;4.43;57.58;97425.86;105733;1278;23923;-77
2022/04/05 03:53:41;;;;;;;4.90;2.10;;;;;;;4.42;57.62;97425.52;105632;1279;25354;-78
2022/04/05 03:56:12;;;;;;;4.60;2.00;;;;;;;4.43;57.60;97420.52;105735;1278;22648;-77
2022/04/05 03:58:39;;;;;;;5.20;2.20;;;;;;;4.44;57.62;97423.61;105719;1278;22606;-76
2022/04/05 04:01:07;;;;;;;6.90;2.10;;;;;;;4.46;57.62;97421.90;105735;1279;22531;-76
2022/04/05 04:03:34;;;;;;;4.60;1.70;;;;;;;4.50;57.82;97421.42;105559;1284;22565;-75
2022/04/05 04:06:01;;;;;;;4.50;1.50;;;;;;;4.50;57.84;97414.91;105683;1278;23176;-76
2022/04/05 04:08:29;;;;;;;6.20;1.90;;;;;;;4.48;57.59;97417.52;105683;1278;25261;-76
2022/04/05 04:10:56;;;;;;;4.30;1.60;;;;;;;4.48;57.88;97413.11;105723;1279;22532;-77
2022/04/05 04:13:26;;;;;;;5.20;1.40;;;;;;;4.49;57.74;97411.77;105719;1279;23571;-77
2022/04/05 04:15:56;;;;;;;4.50;1.40;;;;;;;4.51;57.86;97421.86;105720;1278;22581;-77
2022/04/05 04:18:23;;;;;;;9.30;3.40;;;;;;;4.51;57.78;97418.70;105422;1279;25417;-77
2022/04/05 04:20:51;;;;;;;6.70;2.60;;;;;;;4.50;57.78;97420.02;105825;1278;25336;-77
2022/04/05 04:23:19;;;;;;;7.90;3.00;;;;;;;4.49;57.90;97428.16;105766;1278;25386;-77
2022/04/05 04:25:48;;;;;;;7.60;2.90;;;;;;;4.49;58.12;97427.81;105672;1278;25272;-77
2022/04/05 04:28:15;;;;;;;6.40;2.10;;;;;;;4.50;57.96;97429.21;105707;1279;25332;-77
2022/04/05 04:30:43;;;;;;;5.80;2.00;;;;;;;4.50;57.97;97429.73;105643;1281;24256;-77
2022/04/05 04:33:09;;;;;;;4.90;1.70;;;;;;;4.49;58.13;97431.38;105744;1281;23984;-76
2022/04/05 04:35:38;;;;;;;3.40;1.30;;;;;;;4.49;57.94;97428.91;105713;1281;25480;-77
2022/04/05 04:38:07;;;;;;;3.70;1.40;;;;;;;4.50;58.20;97435.84;105754;1278;24472;-76
2022/04/05 04:40:37;;;;;;;4.10;1.80;;;;;;;4.51;58.22;97438.08;105783;1279;22547;-76
2022/04/05 04:43:05;;;;;;;4.90;1.70;;;;;;;4.52;58.25;97439.06;105640;1278;22539;-76
2022/04/05 04:45:32;;;;;;;4.70;1.50;;;;;;;4.52;58.35;97437.10;105589;1278;22547;-76
2022/04/05 04:47:58;;;;;;;5.70;1.60;;;;;;;4.55;58.18;97436.07;105664;1278;23028;-76
2022/04/05 04:50:26;;;;;;;5.50;1.90;;;;;;;4.57;58.33;97436.96;105688;1279;22803;-76
2022/04/05 04:52:53;;;;;;;7.10;2.90;;;;;;;4.56;58.17;97436.48;105852;1278;22606;-76
2022/04/05 04:55:19;;;;;;;4.70;2.00;;;;;;;4.54;58.27;97440.02;105681;1279;24126;-76
2022/04/05 04:57:46;;;;;;;5.10;1.80;;;;;;;4.53;58.39;97440.42;105726;1279;22564;-76
2022/04/05 05:00:15;;;;;;;3.60;1.40;;;;;;;4.53;58.40;97440.57;105754;1278;25230;-76
2022/04/05 05:02:50;;;;;;;4.10;1.40;;;;;;;4.55;58.41;97442.20;105751;1279;23684;-76
2022/04/05 05:05:17;;;;;;;4.30;1.90;;;;;;;4.54;58.36;97442.08;105871;1278;23113;-75
2022/04/05 05:07:44;;;;;;;4.30;1.80;;;;;;;4.53;58.55;97445.16;105755;1279;25479;-75
2022/04/05 05:10:12;;;;;;;3.70;1.30;;;;;;;4.54;58.53;97453.59;105738;1278;22534;-75
2022/04/05 05:12:41;;;;;;;3.20;1.20;;;;;;;4.55;58.78;97451.91;105776;1278;22590;-76
2022/04/05 05:15:10;;;;;;;3.90;1.00;;;;;;;4.56;58.73;97454.12;105759;1276;22698;-77
2022/04/05 05:17:37;;;;;;;5.00;1.60;;;;;;;4.55;58.55;97458.95;105956;1277;24273;-77
2022/04/05 05:20:06;;;;;;;4.60;1.50;;;;;;;4.55;58.50;97456.66;106038;1277;24237;-77
2022/04/05 05:22:33;;;;;;;4.90;1.80;;;;;;;4.56;58.68;97456.21;109424;1277;22309;-77
2022/04/05 05:25:00;;;;;;;7.90;2.70;;;;;;;4.56;58.74;97459.41;106425;1277;22749;-77
2022/04/05 05:27:28;;;;;;;6.00;2.10;;;;;;;4.56;58.64;97456.35;106023;1277;23493;-76
2022/04/05 05:29:56;;;;;;;5.70;2.10;;;;;;;4.56;58.75;97459.70;107995;1277;26618;-76
2022/04/05 05:32:22;;;;;;;6.00;2.10;;;;;;;4.55;58.84;97462.61;105900;1278;22554;-77
2022/04/05 05:34:49;;;;;;;6.80;2.60;;;;;;;4.55;58.80;97462.31;105693;1279;22754;-76
2022/04/05 05:37:17;;;;;;;9.30;4.10;;;;;;;4.55;58.82;97462.63;105670;1279;25263;-78
2022/04/05 05:39:44;;;;;;;8.10;3.30;;;;;;;4.56;58.70;97463.46;105781;1278;25264;-78
2022/04/05 05:42:10;;;;;;;7.00;2.70;;;;;;;4.59;58.78;97473.79;105735;1279;22562;-77
2022/04/05 05:44:37;;;;;;;7.60;2.50;;;;;;;4.65;58.97;97470.92;105758;1279;24254;-76
2022/04/05 05:47:05;;;;;;;7.30;2.70;;;;;;;4.69;59.03;97474.11;105599;1279;22566;-76
2022/04/05 05:49:32;;;;;;;8.20;3.00;;;;;;;4.72;59.05;97480.64;105726;1278;25308;-78
2022/04/05 05:52:00;;;;;;;8.50;3.60;;;;;;;4.72;58.99;97475.54;105766;1279;22790;-77
2022/04/05 05:54:27;;;;;;;11.20;4.60;;;;;;;4.75;59.09;97477.94;105758;1278;22554;-75
2022/04/05 05:56:54;;;;;;;12.90;4.50;;;;;;;4.80;59.24;97478.46;105711;1279;22646;-78
2022/04/05 05:59:22;;;;;;;11.60;3.70;;;;;;;4.86;58.95;97483.95;105708;1278;22528;-77
2022/04/05 06:01:49;;;;;;;13.40;4.90;;;;;;;4.97;59.19;97487.23;105754;1279;22554;-78
2022/04/05 06:04:16;;;;;;;9.70;3.30;;;;;;;5.05;59.19;97488.89;105755;1278;22560;-77
2022/04/05 06:06:43;;;;;;;10.80;3.20;;;;;;;5.12;59.27;97494.38;105684;1278;22554;-77
2022/04/05 06:09:09;;;;;;;7.10;2.00;;;;;;;5.21;59.14;97501.32;105724;1278;23194;-78
2022/04/05 06:11:36;;;;;;;8.80;2.80;;;;;;;5.29;59.43;97501.77;105741;1278;25265;-76
2022/04/05 06:14:04;;;;;;;7.50;1.70;;;;;;;5.35;59.22;97509.73;105723;1278;22536;-76
2022/04/05 06:16:30;;;;;;;4.10;1.00;;;;;;;5.40;59.32;97515.02;105690;1281;22702;-77
2022/04/05 06:18:57;;;;;;;2.50;0.50;;;;;;;5.45;59.16;97516.96;105720;1278;24336;-77
2022/04/05 06:21:24;;;;;;;3.20;0.80;;;;;;;5.46;59.26;97519.14;105712;1278;22901;-77
2022/04/05 06:23:52;;;;;;;5.80;1.20;;;;;;;5.47;59.22;97521.41;105708;1278;25427;-77
2022/04/05 06:26:19;;;;;;;3.20;0.80;;;;;;;5.48;59.25;97526.99;105606;1278;24246;-79
2022/04/05 06:28:46;;;;;;;2.80;0.60;;;;;;;5.51;59.37;97525.69;105380;1281;22544;-81
2022/04/05 06:31:13;;;;;;;4.10;0.90;;;;;;;5.53;59.26;97521.27;105551;1278;24339;-79
2022/04/05 06:33:39;;;;;;;4.20;1.30;;;;;;;5.58;59.40;97516.66;105761;1278;22662;-80
2022/04/05 06:36:08;;;;;;;3.30;0.70;;;;;;;5.65;59.46;97515.27;105800;1278;25431;-78
2022/04/05 06:38:36;;;;;;;3.50;0.80;;;;;;;5.69;59.32;97521.31;105745;1278;25221;-78
2022/04/05 06:41:03;;;;;;;2.80;0.70;;;;;;;5.75;59.34;97525.96;105737;1278;22626;-78
2022/04/05 06:43:30;;;;;;;2.80;0.80;;;;;;;5.80;59.25;97530.71;105719;1278;24290;-79
2022/04/05 06:45:57;;;;;;;1.40;0.50;;;;;;;5.84;59.33;97531.98;105720;1278;25340;-77
2022/04/05 06:48:24;;;;;;;2.10;0.70;;;;;;;5.86;59.43;97529.16;105739;1278;22547;-78
2022/04/05 06:50:50;;;;;;;3.60;1.00;;;;;;;5.86;59.39;97533.80;105619;1278;24246;-77
2022/04/05 06:53:18;;;;;;;5.30;1.00;;;;;;;5.89;59.22;97534.77;105450;1279;22557;-78
2022/04/05 06:55:44;;;;;;;2.80;0.80;;;;;;;5.93;59.30;97538.20;105574;1278;24427;-76
2022/04/05 06:58:11;;;;;;;1.60;0.60;;;;;;;6.00;58.98;97532.36;105614;1278;22537;-76
2022/04/05 07:00:38;;;;;;;4.10;1.10;;;;;;;6.12;59.29;97539.04;105725;1278;25427;-76
2022/04/05 07:03:05;;;;;;;5.80;1.40;;;;;;;6.26;59.36;97532.64;105715;1278;22553;-76
2022/04/05 07:05:33;;;;;;;4.40;1.50;;;;;;;6.38;59.44;97536.83;105721;1278;23054;-76
2022/04/05 07:08:00;;;;;;;3.10;1.10;;;;;;;6.41;59.26;97536.69;105759;1278;22535;-76
2022/04/05 07:10:27;;;;;;;5.60;1.20;;;;;;;6.47;59.46;97529.00;105791;1278;26804;-77
2022/04/05 07:12:54;;;;;;;5.20;1.00;;;;;;;6.53;59.37;97539.09;105696;1279;24256;-77
2022/04/05 07:15:21;;;;;;;4.00;0.90;;;;;;;6.58;59.19;97531.45;105747;1281;22547;-77
2022/04/05 07:17:48;;;;;;;4.20;1.20;;;;;;;6.66;59.39;97538.10;105668;1281;26537;-76
2022/04/05 07:20:15;;;;;;;4.30;1.10;;;;;;;6.70;59.28;97542.84;105747;1281;24301;-76
2022/04/05 07:22:48;;;;;;;3.40;1.00;;;;;;;6.68;59.31;97548.72;105648;1281;25273;-77
2022/04/05 07:25:16;;;;;;;4.90;1.20;;;;;;;6.72;59.20;97547.99;105833;1281;23148;-76
2022/04/05 07:27:46;;;;;;;2.30;0.70;;;;;;;6.77;59.18;97553.48;105741;1281;22563;-76
2022/04/05 07:30:14;;;;;;;2.80;1.10;;;;;;;6.76;59.07;97564.15;105717;1281;22817;-77
2022/04/05 07:32:43;;;;;;;3.30;0.90;;;;;;;6.73;59.38;97565.84;105712;1281;22553;-76
2022/04/05 07:35:13;;;;;;;5.30;1.50;;;;;;;6.70;59.47;97569.55;105723;1281;24284;-77
2022/04/05 07:37:40;;;;;;;8.90;2.80;;;;;;;6.67;59.32;97572.16;105756;1281;22580;-77
2022/04/05 07:40:10;;;;;;;7.70;2.40;;;;;;;6.62;59.27;97577.29;105689;1281;22541;-77
2022/04/05 07:42:42;;;;;;;7.10;2.40;;;;;;;6.53;59.36;97578.71;105778;1280;22563;-77
2022/04/05 07:45:10;;;;;;;7.60;2.10;;;;;;;6.48;59.32;97575.03;105699;1281;24251;-77
2022/04/05 07:47:37;;;;;;;8.10;2.20;;;;;;;6.42;59.28;97576.79;105690;1281;25378;-76
2022/04/05 07:50:05;;;;;;;7.30;2.60;;;;;;;6.43;59.39;97580.06;105694;1281;24718;-76
2022/04/05 07:52:33;;;;;;;5.40;1.60;;;;;;;6.49;59.49;97570.37;105747;1281;25570;-76
2022/04/05 07:55:00;;;;;;;5.70;1.80;;;;;;;6.58;59.52;97579.94;105729;1281;22689;-76
2022/04/05 07:57:26;;;;;;;6.60;2.00;;;;;;;6.65;59.51;97579.19;105719;1280;22540;-76
2022/04/05 07:59:53;;;;;;;6.30;1.40;;;;;;;6.68;59.40;97579.27;105723;1281;22544;-76
2022/04/05 08:02:21;;;;;;;4.70;1.20;;;;;;;6.69;59.35;97591.25;105679;1281;25243;-76
2022/04/05 08:04:48;;;;;;;4.30;1.00;;;;;;;6.73;59.41;97586.48;105681;1281;22549;-76
2022/04/05 08:07:15;;;;;;;4.60;1.10;;;;;;;6.85;59.14;97588.74;105711;1281;25439;-77
2022/04/05 08:09:42;;;;;;;5.10;1.10;;;;;;;6.94;59.37;97592.46;105694;1281;22643;-76
2022/04/05 08:12:09;;;;;;;4.90;1.20;;;;;;;7.00;59.20;97597.10;105686;1281;22884;-77
2022/04/05 08:14:35;;;;;;;6.30;2.10;;;;;;;7.00;59.38;97603.63;105681;1281;23834;-76
2022/04/05 08:17:03;;;;;;;6.30;1.70;;;;;;;7.01;59.23;97603.75;105686;1281;22565;-77
2022/04/05 08:19:30;;;;;;;4.60;1.00;;;;;;;7.03;59.17;97615.41;105725;1281;24310;-76
2022/04/05 08:21:58;;;;;;;12.80;5.00;;;;;;;7.04;59.32;97607.56;105768;1278;24303;-76
2022/04/05 08:24:25;;;;;;;13.90;4.90;;;;;;;7.06;59.20;97620.98;105733;1278;22547;-76
2022/04/05 08:26:51;;;;;;;13.20;3.90;;;;;;;7.07;59.03;97626.42;105665;1279;23628;-77
2022/04/05 08:29:18;;;;;;;10.10;2.80;;;;;;;7.05;59.01;97618.89;105727;1278;22833;-76
2022/04/05 08:31:45;;;;;;;12.50;3.70;;;;;;;7.04;59.19;97628.58;105740;1279;22780;-77
2022/04/05 08:34:11;;;;;;;6.10;1.90;;;;;;;7.11;59.32;97625.75;105625;1281;23093;-78
2022/04/05 08:36:41;;;;;;;5.80;1.60;;;;;;;7.23;59.14;97626.65;105627;1281;25392;-76
2022/04/05 08:39:08;;;;;;;8.30;2.30;;;;;;;7.43;59.26;97619.72;105710;1281;25285;-77
2022/04/05 08:41:35;;;;;;;8.00;2.30;;;;;;;7.73;59.27;97619.92;105722;1281;25307;-76
2022/04/05 08:44:03;;;;;;;3.30;1.00;;;;;;;7.93;59.58;97623.42;105807;1281;24756;-76
2022/04/05 08:46:34;;;;;;;4.80;1.70;;;;;;;8.05;59.20;97632.80;105717;1281;25394;-76
2022/04/05 08:49:02;;;;;;;3.40;1.40;;;;;;;8.08;58.97;97647.27;105771;1280;24349;-75
2022/04/05 08:51:32;;;;;;;5.60;1.90;;;;;;;8.02;58.98;97643.52;105807;1281;25391;-76
2022/04/05 08:53:59;;;;;;;2.90;1.30;;;;;;;8.00;59.42;97646.05;105680;1281;23046;-75
2022/04/05 08:56:28;;;;;;;4.20;1.40;;;;;;;7.97;59.38;97651.11;105602;1281;23947;-76
2022/04/05 08:58:57;;;;;;;4.10;1.50;;;;;;;7.94;59.36;97662.86;105453;1281;22585;-75
2022/04/05 09:01:23;;;;;;;5.50;1.50;;;;;;;7.97;59.73;97658.30;105514;1279;24340;-76
2022/04/05 09:03:50;;;;;;;4.20;1.60;;;;;;;8.09;59.53;97652.15;105417;1279;22589;-76
2022/04/05 09:06:26;;;;;;;4.40;1.50;;;;;;;8.20;59.39;97661.51;105453;1278;22565;-76
2022/04/05 09:09:10;;;;;;;5.10;1.60;;;;;;;8.10;59.13;97669.45;105593;1279;22660;-76
2022/04/05 09:11:43;;;;;;;4.90;1.80;;;;;;;7.98;59.41;97674.20;105815;1278;25263;-78
2022/04/05 09:14:11;;;;;;;6.00;2.30;;;;;;;8.00;59.41;97694.07;105790;1278;22550;-77
2022/04/05 09:16:38;;;;;;;5.20;1.90;;;;;;;7.87;59.27;97698.52;105821;1279;22878;-76
2022/04/05 09:19:14;;;;;;;6.00;1.70;;;;;;;7.78;59.35;97702.23;105653;1279;24252;-75
2022/04/05 09:21:57;;;;;;;8.00;3.20;;;;;;;7.77;59.49;97695.59;105733;1278;22571;-78
2022/04/05 09:24:34;;;;;;;5.00;1.80;;;;;;;7.71;59.64;97701.27;105762;1279;25222;-77
2022/04/05 09:27:01;;;;;;;5.20;1.60;;;;;;;7.69;59.61;97721.91;105738;1279;23935;-77
2022/04/05 09:29:41;;;;;;;4.20;1.60;;;;;;;7.71;59.62;97723.23;105704;1278;23394;-76
2022/04/05 09:32:35;;;;;;;5.20;1.70;;;;;;;7.75;59.52;97715.09;106459;1279;22569;-75
2022/04/05 09:35:03;;;;;;;3.70;1.50;;;;;;;7.86;59.78;97704.42;105670;1278;22661;-76
2022/04/05 09:37:30;;;;;;;3.60;1.30;;;;;;;7.96;59.50;97707.83;105731;1278;22539;-77
2022/04/05 09:40:15;;;;;;;5.10;1.80;;;;;;;7.96;59.34;97710.01;105715;1279;22537;-76
2022/04/05 09:43:07;;;;;;;7.10;2.80;;;;;;;7.89;59.28;97707.86;105787;1279;25620;-75
2022/04/05 09:46:09;;;;;;;5.30;1.40;;;;;;;7.77;59.29;97721.83;106268;1278;22554;-76
2022/04/05 09:48:37;;;;;;;3.90;1.20;;;;;;;7.69;58.89;97720.88;105436;1284;25488;-77
2022/04/05 09:51:12;;;;;;;4.40;1.00;;;;;;;7.66;58.93;97732.09;106111;1279;25363;-76
2022/04/05 09:53:43;;;;;;;5.10;1.30;;;;;;;7.57;58.80;97741.54;105882;1278;22565;-77
2022/04/05 09:56:16;;;;;;;8.50;2.40;;;;;;;7.53;58.90;97749.48;105753;1279;24228;-76
2022/04/05 09:58:47;;;;;;;5.40;1.90;;;;;;;7.51;59.13;97740.56;105714;1279;22632;-76
2022/04/05 10:01:14;;;;;;;6.00;1.90;;;;;;;7.56;59.31;97734.53;105820;1278;25611;-78
2022/04/05 10:03:43;;;;;;;5.50;1.80;;;;;;;7.61;59.02;97738.56;105728;1278;22673;-76
2022/04/05 10:06:10;;;;;;;6.30;1.90;;;;;;;7.63;59.04;97732.50;105689;1278;22556;-76
2022/04/05 10:08:38;;;;;;;7.10;2.50;;;;;;;7.63;59.02;97736.91;105737;1278;24439;-75
2022/04/05 10:11:05;;;;;;;8.10;2.30;;;;;;;7.58;59.02;97736.98;105807;1279;22574;-76
2022/04/05 10:13:33;;;;;;;5.70;1.90;;;;;;;7.57;58.93;97742.75;105817;1279;22558;-76
2022/04/05 10:16:03;;;;;;;5.70;1.50;;;;;;;7.47;58.87;97749.08;105748;1279;22720;-76
2022/04/05 10:18:35;;;;;;;5.80;1.60;;;;;;;7.34;58.92;97742.89;105863;1278;25343;-76
2022/04/05 10:21:03;;;;;;;4.90;1.50;;;;;;;7.26;58.75;97742.43;105801;1278;22553;-76
2022/04/05 10:23:31;;;;;;;7.60;1.80;;;;;;;7.14;58.70;97739.08;105801;1279;22579;-75
2022/04/05 10:25:59;;;;;;;7.60;1.50;;;;;;;7.04;58.83;97740.63;105799;1279;25541;-77
2022/04/05 10:28:29;;;;;;;6.30;1.60;;;;;;;6.97;58.82;97743.64;105679;1279;22576;-76
2022/04/05 10:31:22;;;;;;;5.50;1.40;;;;;;;6.87;59.06;97760.17;105674;1279;22538;-77
2022/04/05 10:34:14;;;;;;;7.70;2.20;;;;;;;6.74;59.04;97745.77;105758;1279;22544;-76
2022/04/05 10:37:10;;;;;;;7.60;1.70;;;;;;;6.71;59.11;97753.83;105842;1278;23142;-78
2022/04/05 10:39:37;;;;;;;10.30;2.60;;;;;;;6.68;59.09;97749.23;105684;1281;22532;-78
2022/04/05 10:42:13;;;;;;;8.80;2.30;;;;;;;6.70;59.08;97755.80;105731;1281;24248;-77
2022/04/05 10:45:13;;;;;;;8.70;2.60;;;;;;;6.70;58.99;97755.27;105731;1281;22541;-77
2022/04/05 10:48:07;;;;;;;9.10;1.90;;;;;;;6.75;59.19;97753.68;105630;1281;22664;-77
2022/04/05 10:50:34;;;;;;;8.70;1.40;;;;;;;6.74;58.94;97755.84;105693;1281;22649;-76
2022/04/05 10:53:18;;;;;;;9.10;2.10;;;;;;;6.67;58.99;97754.48;105677;1281;22641;-76
2022/04/05 10:56:24;;;;;;;7.70;2.30;;;;;;;6.61;59.05;97762.52;105673;1281;22534;-77
2022/04/05 10:59:14;;;;;;;9.10;2.80;;;;;;;6.66;59.06;97761.29;105090;1284;22560;-77
2022/04/05 11:01:45;;;;;;;8.10;2.20;;;;;;;6.80;59.21;97760.23;105413;1284;22594;-76
2022/04/05 11:04:12;;;;;;;8.40;1.60;;;;;;;6.86;59.03;97757.09;105496;1281;24310;-76
2022/04/05 11:07:10;;;;;;;5.90;2.00;;;;;;;6.91;58.79;97761.46;105687;1281;22559;-76
2022/04/05 11:09:53;;;;;;;8.90;1.90;;;;;;;6.91;58.95;97777.58;105750;1280;22550;-77
2022/04/05 11:12:31;;;;;;;9.00;2.40;;;;;;;6.86;59.05;97775.27;105734;1281;25397;-76
2022/04/05 11:15:04;;;;;;;7.10;2.00;;;;;;;6.87;59.12;97779.34;105683;1280;22528;-76
2022/04/05 11:17:36;;;;;;;8.10;1.70;;;;;;;6.82;59.27;97779.17;105724;1279;22541;-76
2022/04/05 11:20:05;;;;;;;9.20;1.70;;;;;;;6.85;59.09;97780.31;105655;1281;22607;-77
2022/04/05 11:22:36;;;;;;;7.80;1.20;;;;;;;6.85;59.08;97787.91;105798;1281;25273;-76
2022/04/05 11:25:13;;;;;;;10.90;1.80;;;;;;;6.85;59.13;97792.72;105736;1281;22540;-77
2022/04/05 11:27:53;;;;;;;10.10;2.50;;;;;;;6.94;59.25;97777.13;105695;1281;23983;-76
2022/04/05 11:30:29;;;;;;;7.80;2.00;;;;;;;7.07;59.04;97783.41;105746;1281;22538;-76
2022/04/05 11:33:24;;;;;;;9.80;3.20;;;;;;;7.14;58.95;97786.39;105682;1281;24403;-76
2022/04/05 11:36:02;;;;;;;10.70;1.40;;;;;;;7.22;58.86;97786.80;105686;1281;22606;-77
2022/04/05 11:38:46;;;;;;;6.50;1.60;;;;;;;7.22;58.82;97795.31;105752;1281;22575;-77
2022/04/05 11:41:24;;;;;;;5.00;1.00;;;;;;;7.17;58.79;97793.23;105713;1281;22553;-76
2022/04/05 11:44:02;;;;;;;7.70;2.20;;;;;;;7.15;58.76;97789.14;105621;1280;23977;-78
2022/04/05 11:46:40;;;;;;;5.90;1.60;;;;;;;7.20;58.81;97792.83;105730;1281;25534;-78